Time;durP1;ratioP1;P1;durP2;ratioP2;P2;SDS_P1;SDS_P2;PMS_P1;PMS_P2;Temp;Humidity;BMP_temperature;BMP_pressure;BME280_temperature;BME280_humidity;BME280_pressure;Samples;Min_cycle;Max_cycle;Signal;HPM_P1;HPM_P2
2024/02/01 00:00:36;;;;;;;17.88;9.40;;;10.00;56.50;;;;;;6235815;28;20737;-74
2024/02/01 00:03:37;;;;;;;22.83;8.05;;;10.00;56.60;;;;;;6252144;28;20048;-75
2024/02/01 00:06:39;;;;;;;29.00;8.43;;;9.90;56.60;;;;;;6235586;28;20028;-76
2024/02/01 00:09:40;;;;;;;16.02;8.20;;;10.00;56.60;;;;;;6251277;28;20074;-76
2024/02/01 00:12:42;;;;;;;13.52;7.53;;;10.00;56.60;;;;;;6254741;28;20594;-76
2024/02/01 00:15:44;;;;;;;19.92;8.23;;;9.90;57.10;;;;;;6253021;28;20112;-75
2024/02/01 00:18:47;;;;;;;17.27;7.15;;;9.90;56.60;;;;;;6254188;28;20107;-75
2024/02/01 00:21:49;;;;;;;15.13;7.45;;;9.90;56.70;;;;;;6220586;28;20036;-77
2024/02/01 00:24:53;;;;;;;14.80;5.88;;;9.90;56.60;;;;;;6251210;28;20106;-75
2024/02/01 00:27:55;;;;;;;18.40;7.22;;;9.90;56.50;;;;;;6235942;28;20028;-75
2024/02/01 00:30:57;;;;;;;20.70;7.65;;;9.90;56.50;;;;;;6256725;28;20099;-75
2024/02/01 00:34:01;;;;;;;16.80;6.85;;;9.90;57.00;;;;;;6254620;28;20098;-75
2024/02/01 00:37:02;;;;;;;15.48;7.90;;;9.90;56.60;;;;;;6252059;28;20469;-75
2024/02/01 00:40:03;;;;;;;14.13;7.20;;;9.80;56.70;;;;;;6241223;28;20029;-75
2024/02/01 00:43:04;;;;;;;16.67;7.78;;;9.80;56.90;;;;;;6249659;28;20033;-74
2024/02/01 00:46:06;;;;;;;17.48;7.70;;;9.70;57.00;;;;;;6239571;28;20362;-75
2024/02/01 00:49:07;;;;;;;23.95;9.38;;;9.70;57.30;;;;;;6234910;28;20033;-75
2024/02/01 00:52:08;;;;;;;16.20;8.13;;;9.70;57.40;;;;;;6272869;28;20174;-75
2024/02/01 00:55:11;;;;;;;15.88;7.05;;;9.70;57.50;;;;;;6257103;28;20028;-76
2024/02/01 00:58:11;;;;;;;15.30;7.80;;;9.60;57.50;;;;;;6240062;28;20014;-76
2024/02/01 01:01:14;;;;;;;21.55;7.50;;;9.60;57.60;;;;;;6240101;28;20760;-76
2024/02/01 01:04:15;;;;;;;20.63;8.27;;;9.60;57.70;;;;;;6257804;28;20373;-74
2024/02/01 01:07:17;;;;;;;23.80;7.95;;;9.60;57.60;;;;;;6255547;28;20427;-75
2024/02/01 01:10:18;;;;;;;15.02;7.20;;;9.60;57.60;;;;;;6256126;28;20139;-75
2024/02/01 01:13:20;;;;;;;14.18;7.60;;;9.50;57.60;;;;;;6239676;28;20020;-74
2024/02/01 01:16:21;;;;;;;15.82;7.15;;;9.50;57.80;;;;;;6255333;28;20052;-75
2024/02/01 01:19:25;;;;;;;18.23;6.78;;;9.40;57.80;;;;;;6288052;28;20021;-75
2024/02/01 01:22:26;;;;;;;16.42;7.07;;;9.40;57.90;;;;;;6255736;28;20404;-74
2024/02/01 01:25:27;;;;;;;19.85;9.30;;;9.40;58.00;;;;;;6253843;28;20024;-76
2024/02/01 01:28:28;;;;;;;23.85;8.00;;;9.40;58.00;;;;;;6252804;28;20439;-75
2024/02/01 01:31:29;;;;;;;19.00;8.20;;;9.30;58.00;;;;;;6256235;28;20162;-74
2024/02/01 01:34:30;;;;;;;20.15;8.10;;;9.30;58.10;;;;;;6256931;28;20100;-75
2024/02/01 01:37:36;;;;;;;17.95;8.15;;;9.30;58.00;;;;;;6256500;28;20028;-74
2024/02/01 01:40:38;;;;;;;22.38;7.88;;;9.30;58.00;;;;;;6255173;28;20039;-75
2024/02/01 01:43:39;;;;;;;15.93;8.15;;;9.40;58.00;;;;;;6240729;28;20037;-74
2024/02/01 01:46:40;;;;;;;15.68;7.15;;;9.40;58.00;;;;;;6258021;28;20017;-74
2024/02/01 01:49:42;;;;;;;23.15;8.85;;;9.30;57.90;;;;;;6253204;28;20098;-75
2024/02/01 01:52:45;;;;;;;18.25;7.97;;;9.30;57.90;;;;;;6237205;28;20346;-75
2024/02/01 01:55:46;;;;;;;18.65;7.50;;;9.30;58.00;;;;;;6254984;28;20133;-74
2024/02/01 01:58:48;;;;;;;13.68;6.95;;;9.30;58.00;;;;;;6256878;28;20013;-75
2024/02/01 02:01:50;;;;;;;17.35;7.03;;;9.20;58.10;;;;;;6272512;28;20086;-74
2024/02/01 02:04:52;;;;;;;16.48;7.60;;;9.20;58.20;;;;;;6256427;28;20627;-75
2024/02/01 02:07:53;;;;;;;28.45;8.60;;;9.20;58.20;;;;;;6256607;28;20021;-75
2024/02/01 02:10:56;;;;;;;15.65;7.88;;;9.10;58.30;;;;;;6255597;28;20037;-75
2024/02/01 02:13:57;;;;;;;20.92;7.97;;;9.10;58.40;;;;;;6255955;28;20048;-75
2024/02/01 02:16:57;;;;;;;21.52;9.02;;;9.00;58.50;;;;;;6252383;28;20639;-75
2024/02/01 02:20:20;;;;;;;19.83;8.32;;;9.00;58.70;;;;;;6255770;28;20033;-74
2024/02/01 02:23:21;;;;;;;21.20;7.60;;;8.90;58.80;;;;;;6236151;28;20043;-74
2024/02/01 02:26:21;;;;;;;22.38;8.98;;;8.90;58.90;;;;;;6267365;28;20119;-74
2024/02/01 02:29:23;;;;;;;33.20;8.40;;;8.90;59.00;;;;;;6222486;28;20029;-74
2024/02/01 02:32:27;;;;;;;19.35;7.43;;;8.80;59.00;;;;;;6253577;28;20032;-75
2024/02/01 02:35:29;;;;;;;24.35;11.35;;;8.80;59.10;;;;;;6256005;28;20100;-74
2024/02/01 02:38:30;;;;;;;35.63;8.25;;;8.80;59.00;;;;;;6251394;28;20120;-75
2024/02/01 02:41:31;;;;;;;21.73;8.65;;;8.80;59.10;;;;;;6258003;28;20031;-75
2024/02/01 02:44:31;;;;;;;19.88;8.05;;;8.80;59.10;;;;;;6254960;28;20551;-74
2024/02/01 02:47:32;;;;;;;17.58;7.78;;;8.80;59.10;;;;;;6254015;28;20021;-75
2024/02/01 02:50:33;;;;;;;18.42;8.07;;;8.80;59.20;;;;;;6253521;28;20035;-73
2024/02/01 02:53:35;;;;;;;17.73;7.00;;;8.70;59.20;;;;;;6245664;28;20039;-74
2024/02/01 02:56:36;;;;;;;18.42;7.20;;;8.80;59.20;;;;;;6270347;28;20081;-76
2024/02/01 02:59:37;;;;;;;16.30;7.60;;;8.80;59.20;;;;;;6254368;28;20177;-75
2024/02/01 03:02:39;;;;;;;18.65;7.22;;;8.80;59.20;;;;;;6236943;28;20032;-75
2024/02/01 03:05:40;;;;;;;24.42;7.55;;;8.80;59.10;;;;;;6220375;28;20139;-75
2024/02/01 03:08:43;;;;;;;16.35;7.28;;;8.90;59.20;;;;;;6250661;28;20426;-75
2024/02/01 03:11:56;;;;;;;20.95;7.78;;;8.90;59.00;;;;;;6283453;28;20032;-75
2024/02/01 03:14:57;;;;;;;15.18;7.40;;;8.90;59.00;;;;;;6254619;28;20086;-74
2024/02/01 03:17:58;;;;;;;13.13;7.65;;;8.90;58.80;;;;;;6253473;28;20049;-74
2024/02/01 03:20:59;;;;;;;15.68;7.10;;;8.90;58.80;;;;;;6254347;28;20103;-74
2024/02/01 03:24:01;;;;;;;17.95;8.00;;;8.90;58.90;;;;;;6234922;28;20143;-74
2024/02/01 03:27:11;;;;;;;18.48;8.02;;;8.80;58.90;;;;;;6252824;28;20059;-76
2024/02/01 03:30:15;;;;;;;17.80;8.55;;;8.70;59.00;;;;;;6238499;28;20025;-75
2024/02/01 03:33:19;;;;;;;15.25;6.93;;;8.70;59.00;;;;;;6272517;28;20024;-74
2024/02/01 03:36:21;;;;;;;16.30;6.10;;;8.70;59.10;;;;;;6237106;28;20120;-75
2024/02/01 03:39:22;;;;;;;19.40;8.30;;;8.70;59.10;;;;;;6253008;28;20021;-75
2024/02/01 03:42:23;;;;;;;12.93;6.82;;;8.60;59.10;;;;;;6255152;28;20145;-75
2024/02/01 03:45:24;;;;;;;20.15;6.63;;;8.60;59.20;;;;;;6252177;28;20016;-74
2024/02/01 03:48:24;;;;;;;18.77;6.90;;;8.60;59.20;;;;;;6253268;28;20010;-74
2024/02/01 03:51:26;;;;;;;21.75;7.30;;;8.80;59.30;;;;;;6255100;28;20130;-75
2024/02/01 03:54:26;;;;;;;18.10;7.80;;;8.60;59.20;;;;;;6249036;28;20103;-75
2024/02/01 03:57:27;;;;;;;16.33;6.25;;;8.70;59.30;;;;;;6251185;28;20029;-74
2024/02/01 04:00:28;;;;;;;14.68;7.40;;;8.70;59.30;;;;;;6254592;28;20108;-75
2024/02/01 04:03:30;;;;;;;24.75;7.97;;;8.70;59.30;;;;;;6253456;28;20025;-75
2024/02/01 04:06:37;;;;;;;17.98;8.45;;;8.70;59.20;;;;;;6252034;28;20124;-75
2024/02/01 04:09:37;;;;;;;11.88;6.03;;;8.60;59.10;;;;;;6249866;28;20091;-77
2024/02/01 04:12:38;;;;;;;16.73;6.88;;;8.60;59.20;;;;;;6237262;28;20028;-75
2024/02/01 04:15:42;;;;;;;17.23;6.80;;;8.60;59.30;;;;;;6237266;28;20028;-75
2024/02/01 04:18:43;;;;;;;28.67;7.88;;;8.50;59.30;;;;;;6252686;28;20074;-74
2024/02/01 04:21:48;;;;;;;17.92;7.53;;;8.50;59.40;;;;;;6252662;28;20117;-74
2024/02/01 04:24:49;;;;;;;21.35;7.20;;;8.50;59.30;;;;;;6256586;28;20230;-75
2024/02/01 04:27:53;;;;;;;19.95;7.68;;;8.50;59.40;;;;;;6247249;28;20049;-75
2024/02/01 04:30:54;;;;;;;18.40;7.07;;;8.40;59.50;;;;;;6234927;28;20025;-75
2024/02/01 04:33:57;;;;;;;9.32;6.30;;;8.40;59.60;;;;;;6257058;28;20028;-75
2024/02/01 04:36:58;;;;;;;18.70;7.15;;;8.30;59.50;;;;;;6252995;28;20114;-74
2024/02/01 04:40:00;;;;;;;17.42;6.90;;;8.30;59.60;;;;;;6254347;28;20023;-73
2024/02/01 04:43:03;;;;;;;12.52;6.60;;;8.20;59.80;;;;;;6253307;28;20078;-74
2024/02/01 04:46:05;;;;;;;20.30;7.55;;;8.10;60.00;;;;;;6251255;28;20028;-74
2024/02/01 04:49:11;;;;;;;15.18;6.65;;;8.00;60.30;;;;;;6249888;28;20021;-74
2024/02/01 04:52:12;;;;;;;18.05;8.23;;;7.90;60.50;;;;;;6236170;28;20029;-74
2024/02/01 04:55:13;;;;;;;13.95;6.88;;;7.90;60.70;;;;;;6251624;28;20020;-75
2024/02/01 04:58:14;;;;;;;13.88;7.00;;;7.90;60.80;;;;;;6235295;28;20121;-75
2024/02/01 05:01:15;;;;;;;24.05;6.13;;;7.90;60.80;;;;;;6251867;28;20068;-74
2024/02/01 05:04:18;;;;;;;16.13;8.02;;;7.90;60.70;;;;;;6250972;28;20303;-74
2024/02/01 05:07:19;;;;;;;15.23;6.70;;;8.00;60.80;;;;;;6234748;28;20025;-74
2024/02/01 05:10:20;;;;;;;13.52;5.65;;;8.00;60.80;;;;;;6252378;28;20131;-75
2024/02/01 05:13:22;;;;;;;12.23;6.32;;;8.00;60.80;;;;;;6250334;28;20361;-74
2024/02/01 05:16:26;;;;;;;26.30;7.32;;;8.00;60.80;;;;;;6253800;28;20025;-74
2024/02/01 05:19:26;;;;;;;13.52;5.68;;;8.00;61.70;;;;;;6252691;28;20036;-76
2024/02/01 05:22:28;;;;;;;16.33;6.35;;;8.00;61.00;;;;;;6251197;28;20096;-75
2024/02/01 05:25:29;;;;;;;13.93;5.57;;;8.00;61.00;;;;;;6253782;28;20025;-75
2024/02/01 05:28:30;;;;;;;16.23;7.00;;;8.00;61.10;;;;;;6265274;28;20024;-74
2024/02/01 05:31:34;;;;;;;17.48;5.93;;;8.00;61.20;;;;;;6252806;28;20106;-74
2024/02/01 05:34:35;;;;;;;18.02;6.97;;;8.00;61.30;;;;;;6255440;28;20013;-76
2024/02/01 05:37:35;;;;;;;12.73;6.90;;;8.00;61.40;;;;;;6256858;28;20473;-74
2024/02/01 05:40:39;;;;;;;13.60;5.85;;;8.00;61.30;;;;;;6222713;28;20396;-75
2024/02/01 05:43:43;;;;;;;13.40;5.13;;;8.10;61.30;;;;;;6254518;28;20124;-75
2024/02/01 05:46:47;;;;;;;15.00;6.53;;;8.00;61.20;;;;;;6239326;28;20033;-75
2024/02/01 05:49:54;;;;;;;16.45;6.43;;;8.10;61.10;;;;;;6257952;28;20061;-74
2024/02/01 05:52:55;;;;;;;12.23;5.70;;;8.20;61.00;;;;;;6254119;28;20173;-74
2024/02/01 05:56:00;;;;;;;17.63;7.00;;;8.20;60.90;;;;;;6254386;28;20098;-75
2024/02/01 05:59:02;;;;;;;14.85;6.40;;;8.20;60.70;;;;;;6250785;28;20162;-75
2024/02/01 06:02:05;;;;;;;13.70;6.30;;;8.20;60.60;;;;;;6237479;28;20401;-75
2024/02/01 06:05:06;;;;;;;15.80;6.50;;;8.30;60.50;;;;;;6255650;28;20048;-75
2024/02/01 06:08:07;;;;;;;13.60;6.10;;;8.30;60.50;;;;;;6236779;28;20091;-75
2024/02/01 06:11:07;;;;;;;16.00;6.05;;;8.30;60.30;;;;;;6253653;28;20028;-75
2024/02/01 06:14:09;;;;;;;13.02;6.53;;;8.30;60.40;;;;;;6255764;28;20434;-74
2024/02/01 06:17:10;;;;;;;17.00;6.30;;;8.30;60.30;;;;;;6254775;28;20410;-75
2024/02/01 06:20:13;;;;;;;11.75;5.70;;;8.30;60.30;;;;;;6254113;28;20108;-75
2024/02/01 06:23:13;;;;;;;13.10;6.32;;;8.40;60.30;;;;;;6241946;28;20076;-74
2024/02/01 06:26:25;;;;;;;19.27;5.97;;;8.30;60.20;;;;;;6254932;28;20041;-74
2024/02/01 06:29:26;;;;;;;14.32;5.97;;;8.40;60.30;;;;;;6252719;28;20021;-74
2024/02/01 06:32:27;;;;;;;12.05;5.88;;;8.40;60.30;;;;;;6235853;28;20024;-74
2024/02/01 06:35:27;;;;;;;13.63;6.30;;;8.50;60.30;;;;;;6255289;28;20092;-77
2024/02/01 06:38:45;;;;;;;13.52;5.20;;;8.50;60.20;;;;;;6254171;28;20021;-72
2024/02/01 06:44:48;;;;;;;13.45;6.43;;;8.60;60.00;;;;;;6255506;28;20509;-74
2024/02/01 06:47:50;;;;;;;17.52;6.22;;;8.60;59.90;;;;;;6252420;28;20021;-75
2024/02/01 06:51:07;;;;;;;8.30;5.25;;;8.70;59.90;;;;;;6248825;28;20136;-75
2024/02/01 06:54:26;;;;;;;17.00;6.18;;;8.70;59.90;;;;;;6251461;28;20013;-74
2024/02/01 06:57:53;;;;;;;12.60;5.68;;;8.60;59.70;;;;;;6249628;28;20108;-74
2024/02/01 07:01:03;;;;;;;11.68;5.93;;;8.60;59.90;;;;;;6249499;28;20028;-74
2024/02/01 07:04:16;;;;;;;20.48;6.45;;;8.50;60.00;;;;;;6260566;28;20137;-72
2024/02/01 07:07:26;;;;;;;15.05;6.93;;;8.40;60.10;;;;;;6262772;28;20155;-75
2024/02/01 07:10:42;;;;;;;14.77;5.75;;;8.40;60.30;;;;;;6243511;28;20040;-74
2024/02/01 07:13:58;;;;;;;17.02;5.78;;;8.30;60.30;;;;;;6259356;28;20039;-74
2024/02/01 07:17:27;;;;;;;14.00;5.95;;;8.30;60.40;;;;;;6264525;28;20052;-76
2024/02/01 07:20:46;;;;;;;17.88;5.88;;;8.30;60.40;;;;;;6260574;28;20469;-73
2024/02/01 07:23:57;;;;;;;;;;;8.30;60.50;;;;;;6263301;28;20505;-74
2024/02/01 08:00:27;;;;;;;16.77;6.53;;;8.40;60.60;;;;;;6261797;28;20021;-75
2024/02/01 08:03:55;;;;;;;18.40;7.40;;;8.50;60.40;;;;;;6245332;28;20013;-75
2024/02/01 08:10:19;;;;;;;20.90;7.00;;;8.80;60.80;;;;;;6263009;28;20028;-76
2024/02/01 08:13:20;;;;;;;17.90;5.75;;;8.90;59.70;;;;;;6246581;28;20024;-77
2024/02/01 08:16:22;;;;;;;9.55;5.80;;;9.00;59.50;;;;;;6260037;28;20040;-76
2024/02/01 08:19:25;;;;;;;11.05;5.40;;;9.20;59.40;;;;;;6260316;28;20422;-75
2024/02/01 08:22:26;;;;;;;15.40;5.15;;;9.30;59.20;;;;;;6279910;28;20079;-76
2024/02/01 08:25:27;;;;;;;11.80;6.03;;;9.50;59.10;;;;;;6260596;28;20483;-73
2024/02/01 08:28:32;;;;;;;13.10;6.05;;;9.60;58.80;;;;;;6275781;28;20093;-74
2024/02/01 08:31:37;;;;;;;23.80;7.38;;;9.70;58.50;;;;;;6240486;28;20036;-76
2024/02/01 08:35:00;;;;;;;14.00;6.03;;;9.80;58.30;;;;;;6232016;28;20057;-74
2024/02/01 08:38:05;;;;;;;22.90;7.13;;;9.70;57.90;;;;;;6230496;28;20416;-78
2024/02/01 08:41:05;;;;;;;17.70;6.85;;;9.70;57.90;;;;;;6197839;28;20032;-75
2024/02/01 08:44:06;;;;;;;13.25;7.10;;;9.70;57.90;;;;;;6229351;28;20493;-74
2024/02/01 08:47:13;;;;;;;11.90;6.20;;;9.70;57.70;;;;;;6246550;28;20029;-74
2024/02/01 08:50:18;;;;;;;12.68;6.13;;;9.70;57.80;;;;;;6247461;28;20045;-75
2024/02/01 08:53:22;;;;;;;14.63;6.05;;;9.70;57.70;;;;;;6211525;28;20544;-76
2024/02/01 08:56:36;;;;;;;13.27;6.55;;;9.70;57.60;;;;;;6229684;28;20053;-76
2024/02/01 08:59:38;;;;;;;20.60;7.90;;;9.60;57.50;;;;;;6231244;28;20552;-75
2024/02/01 09:02:39;;;;;;;11.57;5.70;;;9.60;57.70;;;;;;6231131;28;20071;-75
2024/02/01 09:05:49;;;;;;;10.55;5.78;;;9.60;57.60;;;;;;6244851;28;20039;-74
2024/02/01 09:08:51;;;;;;;21.10;7.88;;;9.60;57.70;;;;;;6264169;28;20036;-74
2024/02/01 09:11:52;;;;;;;12.15;6.57;;;9.60;57.80;;;;;;6264346;28;20078;-75
2024/02/01 09:14:53;;;;;;;12.30;6.72;;;9.60;57.70;;;;;;6263993;28;20059;-75
2024/02/01 09:17:57;;;;;;;14.40;6.38;;;9.70;57.70;;;;;;6248938;28;20059;-77
2024/02/01 09:20:58;;;;;;;27.25;7.20;;;9.80;57.50;;;;;;6266133;28;20303;-75
2024/02/01 09:23:59;;;;;;;31.35;8.05;;;9.90;57.40;;;;;;6262620;28;20028;-76
2024/02/01 09:27:00;;;;;;;18.08;7.78;;;9.90;57.40;;;;;;6262093;28;20028;-75
2024/02/01 09:30:01;;;;;;;24.30;7.30;;;10.00;57.30;;;;;;6268890;28;20029;-74
2024/02/01 09:33:02;;;;;;;14.25;6.57;;;10.10;57.00;;;;;;6260474;28;20027;-75
2024/02/01 09:36:03;;;;;;;21.85;7.55;;;10.00;56.80;;;;;;6260687;28;20067;-75
2024/02/01 09:39:05;;;;;;;15.85;8.35;;;10.00;56.90;;;;;;6263025;28;20045;-74
2024/02/01 09:42:11;;;;;;;31.52;8.25;;;10.00;57.00;;;;;;6229114;28;20040;-75
2024/02/01 09:45:12;;;;;;;13.90;6.68;;;10.10;57.00;;;;;;6264449;28;20073;-75
2024/02/01 09:48:18;;;;;;;16.48;7.03;;;10.10;56.80;;;;;;6250099;28;20031;-74
2024/02/01 09:51:22;;;;;;;20.85;8.48;;;10.20;56.80;;;;;;6245325;28;20057;-75
2024/02/01 09:54:22;;;;;;;14.27;6.80;;;10.30;56.70;;;;;;6266908;28;20558;-75
2024/02/01 09:57:25;;;;;;;12.95;6.93;;;10.30;56.50;;;;;;6262433;28;20054;-74
2024/02/01 10:00:27;;;;;;;23.38;8.95;;;10.40;56.50;;;;;;6265746;28;20104;-76
2024/02/01 10:03:28;;;;;;;22.92;8.40;;;10.50;56.50;;;;;;6266623;28;20167;-76
2024/02/01 10:06:29;;;;;;;25.65;9.55;;;10.70;56.30;;;;;;6246820;28;20453;-74
2024/02/01 10:09:30;;;;;;;17.63;7.72;;;10.80;56.10;;;;;;6262502;28;20055;-75
2024/02/01 10:12:34;;;;;;;25.77;8.07;;;11.00;55.90;;;;;;6261743;28;20401;-77
2024/02/01 10:15:38;;;;;;;14.10;6.57;;;11.00;55.70;;;;;;6262812;28;20024;-75
2024/02/01 10:18:39;;;;;;;19.48;6.72;;;11.10;55.40;;;;;;6245423;28;20021;-75
2024/02/01 10:21:40;;;;;;;14.38;6.50;;;11.20;55.20;;;;;;6246682;28;20079;-76
2024/02/01 10:24:49;;;;;;;26.13;7.72;;;11.30;55.10;;;;;;6265942;28;20028;-75
2024/02/01 10:27:54;;;;;;;26.35;7.47;;;11.40;54.90;;;;;;6266881;28;20025;-74
2024/02/01 10:30:58;;;;;;;24.58;8.02;;;11.50;54.60;;;;;;6244474;28;20504;-75
2024/02/01 10:34:10;;;;;;;18.48;7.55;;;11.60;54.30;;;;;;6250291;28;20093;-75
2024/02/01 10:37:13;;;;;;;16.75;6.65;;;11.70;54.10;;;;;;6263185;28;20029;-74
2024/02/01 10:40:17;;;;;;;17.23;7.82;;;11.90;53.70;;;;;;6264782;28;20019;-75
2024/02/01 10:43:30;;;;;;;18.77;7.68;;;11.90;53.30;;;;;;6261349;28;20036;-75
2024/02/01 10:46:42;;;;;;;14.95;6.10;;;12.10;53.20;;;;;;6263879;28;20023;-74
2024/02/01 10:49:54;;;;;;;19.52;7.82;;;12.20;52.70;;;;;;6263191;28;20053;-76
2024/02/01 10:52:55;;;;;;;17.25;7.13;;;12.20;52.00;;;;;;6260346;28;20104;-73
2024/02/01 10:55:56;;;;;;;26.30;8.52;;;12.10;51.90;;;;;;6258932;28;20124;-74
2024/02/01 10:59:06;;;;;;;16.90;7.43;;;12.10;52.40;;;;;;6260443;28;20104;-75
2024/02/01 11:02:07;;;;;;;16.42;7.63;;;12.20;52.50;;;;;;6257628;28;20025;-72
2024/02/01 11:05:12;;;;;;;12.40;6.63;;;12.30;52.20;;;;;;6269691;28;20484;-72
2024/02/01 11:08:17;;;;;;;17.02;7.50;;;12.50;51.90;;;;;;6242042;28;20048;-75
2024/02/01 11:11:37;;;;;;;16.17;7.25;;;12.70;51.50;;;;;;6254659;28;20043;-72
2024/02/01 11:14:39;;;;;;;13.82;6.45;;;12.70;51.30;;;;;;6238554;28;20017;-72
2024/02/01 11:17:41;;;;;;;23.40;7.05;;;12.70;51.20;;;;;;6237006;28;20013;-72
2024/02/01 11:21:13;;;;;;;17.80;7.07;;;12.70;51.00;;;;;;6258320;28;20029;-72
2024/02/01 11:24:21;;;;;;;18.10;7.55;;;12.70;51.10;;;;;;6256522;28;20040;-73
2024/02/01 11:27:24;;;;;;;15.05;6.85;;;12.80;51.10;;;;;;6253838;28;20032;-73
2024/02/01 11:30:33;;;;;;;27.02;8.20;;;12.90;51.20;;;;;;6249706;28;20562;-74
2024/02/01 11:33:37;;;;;;;25.90;8.90;;;13.00;51.00;;;;;;6253195;28;20017;-75
2024/02/01 11:36:38;;;;;;;22.75;7.70;;;13.10;50.90;;;;;;6253383;28;20029;-74
2024/02/01 11:39:39;;;;;;;28.63;8.93;;;13.10;50.70;;;;;;6256581;28;20009;-73
2024/02/01 11:42:40;;;;;;;19.83;8.38;;;13.20;50.60;;;;;;6253088;28;20795;-73
2024/02/01 11:45:41;;;;;;;28.80;8.20;;;13.30;50.60;;;;;;6253163;28;20067;-76
2024/02/01 11:48:42;;;;;;;24.45;8.48;;;13.40;50.30;;;;;;6253289;28;20475;-71
2024/02/01 11:52:13;;;;;;;31.85;8.32;;;13.40;50.20;;;;;;6251737;28;20116;-74
2024/02/01 11:55:15;;;;;;;21.70;7.78;;;13.30;50.20;;;;;;6260133;28;20021;-71
2024/02/01 11:58:17;;;;;;;21.98;8.30;;;13.40;50.30;;;;;;6256721;28;20069;-71
2024/02/01 12:01:18;;;;;;;29.15;8.80;;;13.30;50.20;;;;;;6256267;28;20079;-70
2024/02/01 12:04:21;;;;;;;19.30;9.20;;;13.50;50.20;;;;;;6248090;28;20160;-71
2024/02/01 12:07:23;;;;;;;23.40;8.00;;;13.50;50.10;;;;;;6254970;28;20193;-71
2024/02/01 12:10:24;;;;;;;18.10;6.95;;;13.60;49.90;;;;;;6251961;28;20172;-71
2024/02/01 12:13:25;;;;;;;22.27;9.63;;;13.60;49.90;;;;;;6254906;28;20040;-71
2024/02/01 12:16:30;;;;;;;13.90;6.65;;;13.60;49.90;;;;;;6254387;28;20047;-72
2024/02/01 12:19:37;;;;;;;16.50;5.90;;;13.60;49.90;;;;;;6252354;28;20065;-70
2024/02/01 12:22:46;;;;;;;18.77;6.80;;;13.60;49.60;;;;;;6251287;28;20402;-70
2024/02/01 12:25:47;;;;;;;19.75;6.53;;;13.60;49.40;;;;;;6235933;28;20124;-72
2024/02/01 12:28:48;;;;;;;16.88;6.97;;;13.60;49.50;;;;;;6256826;28;20118;-73
2024/02/01 12:31:50;;;;;;;16.52;6.43;;;13.60;49.20;;;;;;6241545;28;20041;-72
2024/02/01 12:34:51;;;;;;;15.35;6.13;;;13.60;49.20;;;;;;6263102;28;20085;-72
2024/02/01 12:37:52;;;;;;;11.98;5.97;;;13.70;49.10;;;;;;6259918;28;20057;-71
2024/02/01 12:40:53;;;;;;;21.48;6.30;;;13.60;49.00;;;;;;6261893;28;20124;-72
2024/02/01 12:43:53;;;;;;;19.10;6.72;;;13.60;49.10;;;;;;6268936;28;20140;-74
2024/02/01 12:46:55;;;;;;;20.10;6.45;;;13.60;49.10;;;;;;6235257;28;20027;-72
2024/02/01 12:49:58;;;;;;;14.13;6.38;;;13.50;48.90;;;;;;6234726;28;20044;-71
2024/02/01 12:52:58;;;;;;;26.73;7.20;;;13.60;49.00;;;;;;6252254;28;20342;-73
2024/02/01 12:56:00;;;;;;;18.38;6.95;;;13.60;49.10;;;;;;6238550;28;20025;-72
2024/02/01 12:59:22;;;;;;;15.77;8.48;;;13.60;49.20;;;;;;6209626;28;20030;-73
2024/02/01 13:02:27;;;;;;;15.55;6.72;;;13.70;49.10;;;;;;6222926;28;20076;-71
2024/02/01 13:05:29;;;;;;;21.98;6.45;;;13.80;49.10;;;;;;6203601;28;20526;-72
2024/02/01 13:08:29;;;;;;;17.38;8.40;;;13.90;48.90;;;;;;6221205;28;20042;-72
2024/02/01 13:11:30;;;;;;;18.65;6.70;;;14.10;48.70;;;;;;6211485;28;20152;-73
2024/02/01 13:14:31;;;;;;;18.17;6.43;;;14.20;48.50;;;;;;6221726;28;20108;-73
2024/02/01 13:17:34;;;;;;;16.15;6.65;;;14.20;48.10;;;;;;6224086;28;20577;-73
2024/02/01 13:20:35;;;;;;;16.10;7.00;;;14.40;48.10;;;;;;6191763;28;20041;-73
2024/02/01 13:23:36;;;;;;;18.17;7.30;;;14.50;47.90;;;;;;6208837;28;20505;-72
2024/02/01 13:26:37;;;;;;;17.83;7.15;;;14.50;47.90;;;;;;6194552;28;20040;-72
2024/02/01 13:29:38;;;;;;;15.55;7.40;;;14.60;47.90;;;;;;6216419;28;20114;-73
2024/02/01 13:32:39;;;;;;;15.45;6.95;;;14.60;47.80;;;;;;6251654;28;20052;-73
2024/02/01 13:35:41;;;;;;;20.77;7.15;;;14.70;48.20;;;;;;6250104;28;20013;-74
2024/02/01 13:38:41;;;;;;;16.35;7.38;;;14.70;47.70;;;;;;6252099;28;20013;-72
2024/02/01 13:41:46;;;;;;;14.05;7.20;;;14.70;47.60;;;;;;6250995;28;20025;-72
2024/02/01 13:44:47;;;;;;;16.02;6.22;;;14.60;47.60;;;;;;6235241;28;20079;-72
2024/02/01 13:47:49;;;;;;;14.00;6.05;;;14.60;47.60;;;;;;6236032;28;20028;-72
2024/02/01 13:50:50;;;;;;;12.35;6.20;;;14.60;47.90;;;;;;6250653;28;20037;-73
2024/02/01 13:53:51;;;;;;;17.40;6.85;;;14.60;47.80;;;;;;6256411;28;20028;-72
2024/02/01 13:56:52;;;;;;;17.55;6.63;;;14.60;47.80;;;;;;6255356;28;20055;-72
2024/02/01 13:59:53;;;;;;;20.02;7.75;;;14.70;47.90;;;;;;6257646;28;20029;-72
2024/02/01 14:02:55;;;;;;;12.18;6.30;;;14.70;47.90;;;;;;6238107;28;20041;-73
2024/02/01 14:05:56;;;;;;;20.42;7.13;;;14.70;47.80;;;;;;6254498;28;20120;-72
2024/02/01 14:09:04;;;;;;;17.33;7.05;;;14.80;47.90;;;;;;6256400;28;20025;-73
2024/02/01 14:12:05;;;;;;;17.90;6.35;;;14.60;47.80;;;;;;6256401;28;20220;-73
2024/02/01 14:15:07;;;;;;;13.43;6.63;;;14.80;47.80;;;;;;6255137;28;20021;-73
2024/02/01 14:18:08;;;;;;;14.80;6.00;;;14.80;47.70;;;;;;6255529;28;20021;-73
2024/02/01 14:21:09;;;;;;;19.65;7.40;;;14.80;47.60;;;;;;6238819;28;20027;-73
2024/02/01 14:24:10;;;;;;;16.75;6.70;;;14.80;47.70;;;;;;6240432;28;20029;-73
2024/02/01 14:27:10;;;;;;;19.55;7.18;;;14.90;47.80;;;;;;6255428;28;20032;-73
2024/02/01 14:30:16;;;;;;;20.95;7.35;;;14.90;47.70;;;;;;6253751;28;20041;-72
2024/02/01 14:33:18;;;;;;;27.35;7.43;;;15.00;47.60;;;;;;6277699;28;20189;-75
2024/02/01 14:36:19;;;;;;;19.77;6.70;;;15.00;47.60;;;;;;6263938;28;20478;-72
2024/02/01 14:39:23;;;;;;;23.90;7.20;;;15.00;47.50;;;;;;6283062;28;20025;-74
2024/02/01 14:42:27;;;;;;;20.75;7.97;;;15.10;47.60;;;;;;6235863;28;20504;-73
2024/02/01 14:45:33;;;;;;;22.77;7.35;;;15.10;47.60;;;;;;6257370;28;20458;-75
2024/02/01 14:48:35;;;;;;;32.78;7.82;;;15.00;47.60;;;;;;6260267;28;20433;-74
2024/02/01 14:51:36;;;;;;;22.08;8.00;;;15.00;47.80;;;;;;6261422;28;20033;-72
2024/02/01 14:54:37;;;;;;;14.80;6.82;;;14.90;48.00;;;;;;6261794;28;20486;-72
2024/02/01 14:57:39;;;;;;;17.55;7.53;;;14.90;48.00;;;;;;6246230;28;20025;-72
2024/02/01 15:00:40;;;;;;;20.05;8.30;;;15.00;48.10;;;;;;6264612;28;20159;-73
2024/02/01 15:03:40;;;;;;;21.65;7.55;;;15.00;48.10;;;;;;6261387;28;20020;-74
2024/02/01 15:06:42;;;;;;;26.73;7.25;;;15.10;48.00;;;;;;6261584;28;20020;-75
2024/02/01 15:09:46;;;;;;;16.58;7.47;;;15.10;48.00;;;;;;6262926;28;20029;-72
2024/02/01 15:12:48;;;;;;;17.13;7.35;;;15.10;48.00;;;;;;6259943;28;20107;-71
2024/02/01 15:15:49;;;;;;;17.52;6.00;;;15.10;48.10;;;;;;6262091;28;20021;-73
2024/02/01 15:18:50;;;;;;;17.52;7.05;;;15.10;48.20;;;;;;6259451;28;20074;-72
2024/02/01 15:21:52;;;;;;;22.30;6.63;;;15.10;48.20;;;;;;6262340;28;20048;-72
2024/02/01 15:24:54;;;;;;;20.67;6.53;;;15.10;48.40;;;;;;6253323;28;20094;-72
2024/02/01 15:27:55;;;;;;;20.45;6.75;;;15.00;48.50;;;;;;6261468;28;20029;-72
2024/02/01 15:30:57;;;;;;;16.75;5.95;;;15.00;48.70;;;;;;6245238;28;20029;-71
2024/02/01 15:33:58;;;;;;;18.65;6.25;;;14.90;48.90;;;;;;6259593;28;20099;-72
2024/02/01 15:36:59;;;;;;;17.45;6.82;;;14.80;48.90;;;;;;6260338;28;20127;-71
2024/02/01 15:40:00;;;;;;;13.55;6.47;;;14.90;49.20;;;;;;6256834;28;20468;-73
2024/02/01 15:43:01;;;;;;;13.35;5.97;;;14.90;49.30;;;;;;6262803;28;20042;-72
2024/02/01 15:46:04;;;;;;;17.83;6.70;;;15.00;49.50;;;;;;6258204;28;20083;-72
2024/02/01 15:49:11;;;;;;;12.80;6.07;;;14.80;49.60;;;;;;6260805;28;20021;-73
2024/02/01 15:52:14;;;;;;;10.53;5.37;;;14.70;49.60;;;;;;6259622;28;20119;-72
2024/02/01 15:55:15;;;;;;;17.10;5.85;;;14.80;49.90;;;;;;6260939;28;20278;-73
2024/02/01 15:58:16;;;;;;;16.77;5.95;;;14.70;50.00;;;;;;6242609;28;20021;-72
2024/02/01 16:01:18;;;;;;;15.02;6.25;;;14.70;50.20;;;;;;6259645;28;20815;-73
2024/02/01 16:04:19;;;;;;;13.88;5.90;;;14.70;50.30;;;;;;6245487;28;20436;-74
2024/02/01 16:07:21;;;;;;;11.20;5.18;;;14.60;50.30;;;;;;6257807;28;20025;-74
2024/02/01 16:10:27;;;;;;;20.40;6.30;;;14.60;50.40;;;;;;6261934;28;20040;-73
2024/02/01 16:13:36;;;;;;;11.65;5.57;;;14.70;50.60;;;;;;6258549;28;20017;-74
2024/02/01 16:16:43;;;;;;;17.27;5.63;;;14.60;51.10;;;;;;6258267;28;20131;-74
2024/02/01 16:19:46;;;;;;;20.92;5.82;;;14.60;51.20;;;;;;6260788;28;20021;-73
2024/02/01 16:22:49;;;;;;;9.02;5.47;;;14.70;51.40;;;;;;6257100;28;20013;-74
2024/02/01 16:25:51;;;;;;;14.68;6.95;;;14.70;51.70;;;;;;6236893;28;20445;-73
2024/02/01 16:28:53;;;;;;;21.25;6.88;;;14.60;51.70;;;;;;6236503;28;20064;-73